Time;durP1;ratioP1;P1;durP2;ratioP2;P2;SDS_P1;SDS_P2;PMS_P1;PMS_P2;Temp;Humidity;BMP_temperature;BMP_pressure;BME280_temperature;BME280_humidity;BME280_pressure;Samples;Min_cycle;Max_cycle;Signal;HPM_P1;HPM_P2
2022/05/23 00:00:19;;;;;;;;;;;14.90;99.90;;;;;;5073123;28;19909;-77
2022/05/23 00:02:46;;;;;;;;;;;14.90;99.90;;;;;;5073103;28;19916;-76
2022/05/23 00:05:13;;;;;;;;;;;14.90;99.90;;;;;;5073534;28;19913;-75
2022/05/23 00:07:44;;;;;;;;;;;15.00;99.90;;;;;;5074218;28;19995;-75
2022/05/23 00:10:13;;;;;;;;;;;15.00;99.90;;;;;;5074579;28;19999;-75
2022/05/23 00:12:40;;;;;;;;;;;15.10;99.90;;;;;;5074988;28;19917;-76
2022/05/23 00:15:08;;;;;;;;;;;15.10;99.90;;;;;;5074905;28;19908;-76
2022/05/23 00:17:38;;;;;;;;;;;15.10;99.90;;;;;;5074648;28;20271;-75
2022/05/23 00:20:06;;;;;;;;;;;15.10;99.90;;;;;;5074673;28;19916;-76
2022/05/23 00:22:33;;;;;;;;;;;15.10;99.90;;;;;;5074681;28;19999;-75
2022/05/23 00:25:00;;;;;;;;;;;15.20;99.90;;;;;;5074561;28;20371;-75
2022/05/23 00:27:26;;;;;;;;;;;15.10;99.90;;;;;;5074658;28;19951;-75
2022/05/23 00:29:53;;;;;;;;;;;15.00;99.90;;;;;;5074287;28;19934;-75
2022/05/23 00:35:20;;;;;;;;;;;14.90;99.90;;;;;;5074212;28;20278;-74
2022/05/23 00:37:48;;;;;;;;;;;14.90;99.90;;;;;;5074039;28;20355;-75
2022/05/23 00:40:20;;;;;;;;;;;15.00;99.90;;;;;;5074282;28;19936;-75
2022/05/23 00:45:31;;;;;;;;;;;15.00;99.90;;;;;;5074408;28;20374;-76
2022/05/23 00:47:58;;;;;;;;;;;15.00;99.90;;;;;;5074127;28;19908;-76
2022/05/23 00:50:25;;;;;;;;;;;14.90;99.90;;;;;;5073785;28;19924;-75
2022/05/23 00:52:52;;;;;;;;;;;14.70;99.90;;;;;;5074105;28;19920;-75
2022/05/23 00:55:25;;;;;;;;;;;14.70;99.90;;;;;;5073261;28;20530;-75
2022/05/23 00:57:55;;;;;;;;;;;14.60;99.90;;;;;;5073885;28;20007;-75
2022/05/23 01:00:22;;;;;;;;;;;14.70;99.90;;;;;;5073994;28;19962;-74
2022/05/23 01:02:52;;;;;;;;;;;14.70;99.90;;;;;;5074124;28;20366;-76
2022/05/23 01:05:19;;;;;;;;;;;14.60;99.90;;;;;;5073961;28;19908;-75
2022/05/23 01:07:45;;;;;;;;;;;14.70;99.90;;;;;;5073564;28;19970;-76
2022/05/23 01:10:12;;;;;;;;;;;14.80;99.90;;;;;;5073693;28;19916;-74
2022/05/23 01:12:39;;;;;;;;;;;14.80;99.90;;;;;;5073769;28;19920;-75
2022/05/23 01:15:16;;;;;;;;;;;14.70;99.90;;;;;;5073784;28;19955;-75
2022/05/23 01:17:43;;;;;;;;;;;14.70;99.90;;;;;;5073473;28;19909;-75
2022/05/23 01:20:10;;;;;;;;;;;14.60;99.90;;;;;;5073574;28;20267;-74
2022/05/23 01:22:41;;;;;;;;;;;14.50;99.90;;;;;;5072767;28;19908;-74
2022/05/23 01:25:33;;;;;;;;;;;14.40;99.90;;;;;;5073382;28;19915;-74
2022/05/23 01:28:00;;;;;;;;;;;14.40;99.90;;;;;;5087294;28;19915;-75
2022/05/23 01:30:27;;;;;;;;;;;14.40;99.90;;;;;;5073513;28;19909;-74
2022/05/23 01:32:54;;;;;;;;;;;14.40;99.90;;;;;;5073226;28;19924;-74
2022/05/23 01:35:21;;;;;;;;;;;14.40;99.90;;;;;;5073325;28;20026;-76
2022/05/23 01:37:47;;;;;;;;;;;14.40;99.90;;;;;;5073269;28;20370;-75
2022/05/23 01:40:15;;;;;;;;;;;14.50;99.90;;;;;;5073452;28;19916;-75
2022/05/23 01:42:43;;;;;;;;;;;14.50;99.90;;;;;;5073438;28;20355;-75
2022/05/23 01:45:10;;;;;;;;;;;14.50;99.90;;;;;;5073257;28;19943;-74
2022/05/23 01:47:37;;;;;;;;;;;14.50;99.90;;;;;;5073163;28;19909;-74
2022/05/23 01:50:03;;;;;;;;;;;14.50;99.90;;;;;;5073160;28;19909;-74
2022/05/23 01:52:30;;;;;;;;;;;14.50;99.90;;;;;;5073151;28;20351;-74
2022/05/23 01:54:57;;;;;;;;;;;14.30;99.90;;;;;;5105675;28;20333;-74
2022/05/23 01:57:23;;;;;;;;;;;14.30;99.90;;;;;;5073308;28;19947;-74
2022/05/23 02:02:36;;;;;;;;;;;14.40;99.90;;;;;;5073320;28;19951;-76
2022/05/23 02:05:03;;;;;;;;;;;14.40;99.90;;;;;;5073318;28;19946;-74
2022/05/23 02:07:30;;;;;;;;;;;14.40;99.90;;;;;;5073034;28;19909;-75
2022/05/23 02:09:57;;;;;;;;;;;14.40;99.90;;;;;;5072943;28;20448;-74
2022/05/23 02:12:24;;;;;;;;;;;14.50;99.90;;;;;;5072832;28;19969;-74
2022/05/23 02:14:51;;;;;;;;;;;14.40;99.90;;;;;;5073093;28;20401;-75
2022/05/23 02:17:17;;;;;;;;;;;14.30;99.90;;;;;;5073054;28;19908;-73
2022/05/23 02:19:44;;;;;;;;;;;14.20;99.90;;;;;;5072919;28;20267;-73
2022/05/23 02:22:11;;;;;;;;;;;14.20;99.90;;;;;;5073093;28;19912;-73
2022/05/23 02:24:37;;;;;;;;;;;14.30;99.90;;;;;;5073048;28;19908;-74
2022/05/23 02:27:04;;;;;;;;;;;14.30;99.90;;;;;;5072911;28;19909;-73
2022/05/23 02:29:31;;;;;;;;;;;14.20;99.90;;;;;;5072749;28;19995;-74
2022/05/23 02:31:57;;;;;;;;;;;14.30;99.90;;;;;;5072914;28;20275;-73
2022/05/23 02:34:24;;;;;;;;;;;14.30;99.90;;;;;;5075696;28;19908;-74
2022/05/23 02:36:51;;;;;;;;;;;14.30;99.90;;;;;;5076769;28;19943;-74
2022/05/23 02:39:18;;;;;;;;;;;14.30;99.90;;;;;;5076676;28;19940;-73
2022/05/23 02:41:44;;;;;;;;;;;14.40;99.90;;;;;;5076468;28;20371;-73
2022/05/23 02:44:11;;;;;;;;;;;14.40;99.90;;;;;;5076822;28;19931;-73
2022/05/23 02:46:38;;;;;;;;;;;14.40;99.90;;;;;;5076800;28;19908;-73
2022/05/23 02:49:06;;;;;;;;;;;14.40;99.90;;;;;;5076653;28;19916;-74
2022/05/23 02:51:33;;;;;;;;;;;14.30;99.90;;;;;;5076082;28;20306;-76
2022/05/23 02:53:59;;;;;;;;;;;14.30;99.90;;;;;;5076489;28;19915;-73
2022/05/23 02:56:26;;;;;;;;;;;14.30;99.90;;;;;;5076307;28;19912;-76
2022/05/23 02:58:53;;;;;;;;;;;14.30;99.90;;;;;;5076296;28;20347;-73
2022/05/23 03:01:19;;;;;;;;;;;14.40;99.90;;;;;;5076291;28;19931;-74
2022/05/23 03:03:46;;;;;;;;;;;14.40;99.90;;;;;;5076179;28;19908;-75
2022/05/23 03:06:13;;;;;;;;;;;14.40;99.90;;;;;;5076125;28;20244;-74
2022/05/23 03:08:40;;;;;;;;;;;14.30;99.90;;;;;;5076060;28;20001;-73
2022/05/23 03:11:08;;;;;;;;;;;14.30;99.90;;;;;;5076010;28;19921;-73
2022/05/23 03:13:35;;;;;;;;;;;14.40;99.90;;;;;;5075905;28;19910;-73
2022/05/23 03:16:02;;;;;;;;;;;14.40;99.90;;;;;;5075980;28;20378;-74
2022/05/23 03:18:29;;;;;;;;;;;14.40;99.90;;;;;;5075975;28;19908;-73
2022/05/23 03:21:05;;;;;;;;;;;14.40;99.90;;;;;;5075885;28;20354;-73
2022/05/23 03:29:03;;;;;;;;;;;14.40;99.90;;;;;;5076095;28;20001;-74
2022/05/23 03:31:30;;;;;;;;;;;14.40;99.90;;;;;;5075156;28;19995;-74
2022/05/23 03:33:56;;;;;;;;;;;14.40;99.90;;;;;;5075415;28;20003;-74
2022/05/23 03:36:23;;;;;;;;;;;14.40;99.90;;;;;;5075646;28;19944;-73
2022/05/23 03:38:50;;;;;;;;;;;14.40;99.90;;;;;;5075431;28;19909;-74
2022/05/23 03:41:17;;;;;;;;;;;14.50;99.90;;;;;;5075481;28;20276;-74
2022/05/23 03:43:43;;;;;;;;;;;14.50;99.90;;;;;;5074901;28;20330;-73
2022/05/23 03:46:11;;;;;;;;;;;14.60;99.90;;;;;;5074686;28;19973;-75
2022/05/23 03:48:39;;;;;;;;;;;14.40;99.90;;;;;;5075110;28;19912;-75
2022/05/23 03:51:06;;;;;;;;;;;14.40;99.90;;;;;;5075129;28;20028;-75
2022/05/23 03:53:33;;;;;;;;;;;14.40;99.90;;;;;;5074906;28;20011;-75
2022/05/23 03:55:59;;;;;;;;;;;14.30;99.90;;;;;;5075354;28;19941;-74
2022/05/23 03:58:27;;;;;;;;;;;14.30;99.90;;;;;;5075160;28;19912;-74
2022/05/23 04:01:02;;;;;;;;;;;14.30;99.90;;;;;;5074965;28;19934;-74
2022/05/23 04:03:29;;;;;;;;;;;14.30;99.90;;;;;;5075187;28;19915;-75
2022/05/23 04:05:58;;;;;;;;;;;14.30;99.90;;;;;;5075254;28;20563;-74
2022/05/23 04:08:25;;;;;;;;;;;14.30;99.90;;;;;;5074980;28;19920;-74
2022/05/23 04:10:52;;;;;;;;;;;14.40;99.90;;;;;;5074953;28;19935;-74
2022/05/23 04:13:18;;;;;;;;;;;14.50;99.90;;;;;;5074892;28;20325;-74
2022/05/23 04:15:45;;;;;;;;;;;14.50;99.90;;;;;;5074938;28;19932;-74
2022/05/23 04:18:12;;;;;;;;;;;14.40;99.90;;;;;;5074832;28;19943;-74
2022/05/23 04:20:38;;;;;;;;;;;14.30;99.90;;;;;;5074814;28;19908;-74
2022/05/23 04:23:08;;;;;;;;;;;14.30;99.90;;;;;;5074702;28;19956;-74
2022/05/23 04:25:39;;;;;;;;;;;14.10;99.90;;;;;;5074527;28;19951;-74
2022/05/23 04:28:06;;;;;;;;;;;14.10;99.90;;;;;;5074764;28;19909;-75
2022/05/23 04:30:32;;;;;;;;;;;14.10;99.90;;;;;;5074637;28;19932;-74
2022/05/23 04:35:44;;;;;;;;;;;14.10;99.90;;;;;;5074548;28;19915;-75
2022/05/23 04:38:11;;;;;;;;;;;14.20;99.90;;;;;;5074572;28;20282;-75
2022/05/23 04:40:38;;;;;;;;;;;14.20;99.90;;;;;;5074463;28;19987;-74
2022/05/23 04:43:05;;;;;;;;;;;14.30;99.90;;;;;;5074474;28;19913;-75
2022/05/23 04:45:32;;;;;;;;;;;14.30;99.90;;;;;;5074335;28;20359;-74
2022/05/23 04:50:44;;;;;;;;;;;14.50;99.90;;;;;;5078927;28;20012;-74
2022/05/23 04:53:10;;;;;;;;;;;14.60;99.90;;;;;;5078536;28;19916;-75
2022/05/23 04:55:38;;;;;;;;;;;14.80;99.90;;;;;;5078308;28;19920;-74
2022/05/23 04:58:05;;;;;;;;;;;14.90;99.90;;;;;;5077357;28;19912;-74
2022/05/23 05:00:31;;;;;;;;;;;14.80;99.90;;;;;;5079949;28;19962;-74
2022/05/23 05:03:01;;;;;;;;;;;14.80;99.90;;;;;;5077984;28;20279;-76
2022/05/23 05:05:29;;;;;;;;;;;14.80;99.90;;;;;;5076094;28;19908;-76
2022/05/23 05:07:57;;;;;;;;;;;14.80;99.90;;;;;;5074695;28;19912;-76
2022/05/23 05:10:24;;;;;;;;;;;14.70;99.90;;;;;;5074522;28;20374;-76
2022/05/23 05:12:51;;;;;;;;;;;14.60;99.90;;;;;;5074512;28;20426;-76
2022/05/23 05:15:18;;;;;;;;;;;14.50;99.90;;;;;;5074353;28;20356;-76
2022/05/23 05:17:44;;;;;;;;;;;14.50;99.90;;;;;;5073936;28;19915;-75
2022/05/23 05:20:12;;;;;;;;;;;14.50;99.90;;;;;;5074211;28;20350;-76
2022/05/23 05:22:38;;;;;;;;;;;14.50;99.90;;;;;;5073875;28;19909;-76
2022/05/23 05:25:06;;;;;;;;;;;14.50;99.90;;;;;;5073867;28;20343;-74
2022/05/23 05:27:33;;;;;;;;;;;14.60;99.90;;;;;;5072259;28;20256;-75
2022/05/23 05:30:00;;;;;;;;;;;14.60;99.90;;;;;;5073525;28;20378;-74
2022/05/23 05:32:30;;;;;;;;;;;14.60;99.90;;;;;;5073402;28;19942;-75
2022/05/23 05:35:00;;;;;;;;;;;14.60;99.90;;;;;;5073649;28;19966;-75
2022/05/23 05:37:29;;;;;;;;;;;14.60;99.90;;;;;;5073497;28;19908;-75
2022/05/23 05:39:57;;;;;;;;;;;14.50;99.90;;;;;;5073569;28;19935;-74
2022/05/23 05:42:26;;;;;;;;;;;14.40;99.90;;;;;;5073355;28;19915;-74
2022/05/23 05:44:56;;;;;;;;;;;14.30;99.90;;;;;;5073496;28;19947;-75
2022/05/23 05:47:23;;;;;;;;;;;14.20;99.90;;;;;;5073497;28;19908;-75
2022/05/23 05:49:51;;;;;;;;;;;14.10;99.90;;;;;;5073032;28;19913;-74
2022/05/23 05:52:23;;;;;;;;;;;14.00;99.90;;;;;;5073007;28;20045;-74
2022/05/23 05:54:50;;;;;;;;;;;14.00;99.90;;;;;;5073463;28;19909;-75
2022/05/23 05:57:17;;;;;;;;;;;14.00;99.90;;;;;;5073401;28;19912;-75
2022/05/23 05:59:44;;;;;;;;;;;14.00;99.90;;;;;;5073126;28;19908;-75
2022/05/23 06:02:11;;;;;;;;;;;13.90;99.90;;;;;;5073386;28;19912;-75
2022/05/23 06:04:37;;;;;;;;;;;13.80;99.90;;;;;;5073178;28;19908;-75
2022/05/23 06:12:33;;;;;;;;;;;13.80;99.90;;;;;;5077441;28;20088;-74
2022/05/23 06:15:00;;;;;;;;;;;13.70;99.90;;;;;;5077158;28;19916;-74
2022/05/23 06:17:26;;;;;;;;;;;13.60;99.90;;;;;;5077107;28;19908;-74
2022/05/23 06:19:53;;;;;;;;;;;13.60;99.90;;;;;;5076923;28;20257;-74
2022/05/23 06:22:21;;;;;;;;;;;13.50;99.90;;;;;;5077023;28;19909;-75
2022/05/23 06:24:49;;;;;;;;;;;13.40;99.90;;;;;;5077204;28;19962;-74
2022/05/23 06:27:15;;;;;;;;;;;13.30;99.90;;;;;;5076894;28;19918;-74
2022/05/23 06:29:42;;;;;;;;;;;13.20;99.90;;;;;;5076631;28;20283;-74
2022/05/23 06:32:09;;;;;;;;;;;13.20;99.90;;;;;;5076832;28;19962;-74
2022/05/23 06:34:36;;;;;;;;;;;13.20;99.90;;;;;;5076852;28;19908;-74
2022/05/23 06:37:03;;;;;;;;;;;13.20;99.90;;;;;;5076721;28;19915;-74
2022/05/23 06:39:29;;;;;;;;;;;13.10;99.90;;;;;;5076944;28;19939;-74
2022/05/23 06:41:56;;;;;;;;;;;13.20;99.90;;;;;;5076898;28;19909;-74
2022/05/23 06:44:22;;;;;;;;;;;13.30;99.90;;;;;;5076727;28;20351;-74
2022/05/23 06:46:50;;;;;;;;;;;13.30;99.90;;;;;;5076677;28;20017;-75
2022/05/23 06:49:16;;;;;;;;;;;13.40;99.90;;;;;;5076513;28;19908;-75
2022/05/23 06:51:48;;;;;;;;;;;13.40;99.90;;;;;;5073847;28;19920;-74
2022/05/23 06:54:20;;;;;;;;;;;13.40;99.90;;;;;;5074375;28;20362;-74
2022/05/23 06:56:48;;;;;;;;;;;13.40;99.90;;;;;;5074270;28;19931;-74
2022/05/23 06:59:15;;;;;;;;;;;13.30;99.90;;;;;;5074317;28;20181;-75
2022/05/23 07:01:42;;;;;;;;;;;13.30;99.90;;;;;;5073974;28;19916;-74
2022/05/23 07:04:09;;;;;;;;;;;13.30;99.90;;;;;;5074048;28;20325;-74
2022/05/23 07:12:20;;;;;;;;;;;13.50;99.90;;;;;;5074014;28;19974;-74
2022/05/23 07:14:47;;;;;;;;;;;13.50;99.90;;;;;;5074015;28;20441;-74
2022/05/23 07:17:15;;;;;;;;;;;13.50;99.90;;;;;;5073647;28;19908;-75
2022/05/23 07:19:42;;;;;;;;;;;13.60;99.90;;;;;;5072755;28;19912;-75
2022/05/23 07:22:09;;;;;;;;;;;13.60;99.90;;;;;;5073658;28;19909;-74
2022/05/23 07:24:36;;;;;;;;;;;13.50;99.90;;;;;;5073843;28;19978;-75
2022/05/23 07:27:03;;;;;;;;;;;13.50;99.90;;;;;;5073742;28;19915;-74
2022/05/23 07:29:29;;;;;;;;;;;13.50;99.90;;;;;;5073475;28;19908;-74
2022/05/23 07:31:57;;;;;;;;;;;13.60;99.90;;;;;;5073198;28;20366;-75
2022/05/23 07:34:23;;;;;;;;;;;13.60;99.90;;;;;;5073477;28;20252;-75
2022/05/23 07:36:50;;;;;;;;;;;13.60;99.90;;;;;;5073338;28;19908;-75
2022/05/23 07:39:17;;;;;;;;;;;13.60;99.90;;;;;;5073444;28;20433;-75
2022/05/23 07:41:44;;;;;;;;;;;13.60;99.90;;;;;;5073279;28;20389;-75
2022/05/23 07:44:11;;;;;;;;;;;13.60;99.90;;;;;;5073022;28;19908;-75
2022/05/23 07:46:40;;;;;;;;;;;13.70;99.90;;;;;;5074671;28;19950;-75
2022/05/23 07:49:07;;;;;;;;;;;13.70;99.90;;;;;;5073622;28;19912;-75
2022/05/23 07:51:34;;;;;;;;;;;13.80;99.90;;;;;;5072858;28;19924;-76
2022/05/23 08:02:16;;;;;;;;;;;13.80;99.90;;;;;;5073156;28;19967;-76
2022/05/23 08:04:43;;;;;;;;;;;13.90;99.90;;;;;;5073150;28;19912;-76
2022/05/23 08:07:10;;;;;;;;;;;13.90;99.90;;;;;;5072873;28;20275;-75
2022/05/23 08:09:39;;;;;;;;;;;13.90;99.90;;;;;;5072534;28;19913;-75
2022/05/23 08:12:06;;;;;;;;;;;13.90;99.90;;;;;;5072213;28;19916;-75
2022/05/23 08:14:33;;;;;;;;;;;13.80;99.90;;;;;;5072961;28;19923;-75
2022/05/23 08:16:59;;;;;;;;;;;13.90;99.90;;;;;;5072423;28;19947;-75
2022/05/23 08:19:26;;;;;;;;;;;13.80;99.90;;;;;;5072625;28;19909;-75
2022/05/23 08:21:54;;;;;;;;;;;13.90;99.90;;;;;;5072125;28;19920;-75
2022/05/23 08:24:21;;;;;;;;;;;13.80;99.90;;;;;;5072580;28;19916;-75
2022/05/23 08:26:48;;;;;;;;;;;13.80;99.90;;;;;;5072082;28;20018;-75
2022/05/23 08:29:15;;;;;;;;;;;13.80;99.90;;;;;;5072234;28;19938;-75
2022/05/23 08:31:42;;;;;;;;;;;13.90;99.90;;;;;;5071871;28;19917;-75
2022/05/23 08:34:09;;;;;;;;;;;13.90;99.90;;;;;;5072414;28;19909;-76
2022/05/23 08:36:35;;;;;;;;;;;13.90;99.90;;;;;;5072228;28;20275;-75
2022/05/23 08:39:03;;;;;;;;;;;13.90;99.90;;;;;;5072660;28;19999;-76
2022/05/23 08:41:34;;;;;;;;;;;14.00;99.90;;;;;;5071598;28;19947;-75
2022/05/23 08:44:06;;;;;;;;;;;14.00;99.90;;;;;;5072061;28;19916;-75
2022/05/23 08:46:41;;;;;;;;;;;14.00;99.90;;;;;;5071841;28;20023;-75
2022/05/23 08:49:20;;;;;;;;;;;14.00;99.90;;;;;;5072152;28;20279;-75
2022/05/23 08:51:55;;;;;;;;;;;14.00;99.90;;;;;;5071536;28;19927;-75
2022/05/23 08:54:26;;;;;;;;;;;14.00;99.90;;;;;;5072165;28;19999;-75
2022/05/23 08:56:57;;;;;;;;;;;14.00;99.90;;;;;;5071445;28;19919;-75
2022/05/23 08:59:50;;;;;;;;;;;14.00;99.90;;;;;;5072085;28;19946;-75
2022/05/23 09:02:19;;;;;;;;;;;13.90;99.90;;;;;;5070688;28;20256;-75
2022/05/23 09:04:52;;;;;;;;;;;13.90;99.90;;;;;;5072020;28;19916;-73
2022/05/23 09:07:30;;;;;;;;;;;13.90;99.90;;;;;;5073796;28;19995;-75
2022/05/23 09:09:59;;;;;;;;;;;13.90;99.90;;;;;;5073928;28;20275;-75
2022/05/23 09:12:25;;;;;;;;;;;13.80;99.90;;;;;;5073757;28;19920;-75
2022/05/23 09:14:52;;;;;;;;;;;13.80;99.90;;;;;;5073859;28;19909;-75
2022/05/23 09:17:35;;;;;;;;;;;13.80;99.90;;;;;;5073962;28;20015;-74
2022/05/23 09:20:13;;;;;;;;;;;13.80;99.90;;;;;;5073814;28;20252;-74
2022/05/23 09:22:51;;;;;;;;;;;13.80;99.90;;;;;;5073561;28;20003;-75
2022/05/23 09:25:19;;;;;;;;;;;13.80;99.90;;;;;;5073449;28;19909;-75
2022/05/23 09:27:59;;;;;;;;;;;13.80;99.90;;;;;;5073435;28;20315;-75
2022/05/23 09:30:27;;;;;;;;;;;13.80;99.90;;;;;;5073503;28;19915;-75
2022/05/23 09:32:56;;;;;;;;;;;13.90;99.90;;;;;;5073108;28;19916;-75
2022/05/23 09:35:25;;;;;;;;;;;13.90;99.90;;;;;;5073324;28;19908;-74
2022/05/23 09:38:10;;;;;;;;;;;13.90;99.90;;;;;;5072980;28;19917;-74
2022/05/23 09:40:37;;;;;;;;;;;13.80;99.90;;;;;;5073347;28;19913;-75
2022/05/23 09:49:09;;;;;;;;;;;13.60;99.90;;;;;;5073407;28;19978;-75
2022/05/23 09:51:56;;;;;;;;;;;13.60;99.90;;;;;;5072712;28;19931;-75
2022/05/23 09:54:27;;;;;;;;;;;13.60;99.90;;;;;;5073299;28;20286;-74
2022/05/23 09:56:54;;;;;;;;;;;13.70;99.90;;;;;;5073066;28;20007;-74
2022/05/23 09:59:20;;;;;;;;;;;13.70;99.90;;;;;;5073108;28;20334;-75
2022/05/23 10:01:47;;;;;;;;;;;13.80;99.90;;;;;;5072968;28;19908;-75
2022/05/23 10:04:16;;;;;;;;;;;13.90;99.90;;;;;;5073212;28;19909;-75
2022/05/23 10:06:48;;;;;;;;;;;13.90;99.90;;;;;;5073137;28;19915;-74
2022/05/23 10:09:26;;;;;;;;;;;13.90;99.90;;;;;;5073190;28;20003;-75
2022/05/23 10:11:55;;;;;;;;;;;13.90;99.90;;;;;;5073019;28;19924;-75
2022/05/23 10:14:22;;;;;;;;;;;13.90;99.90;;;;;;5072954;28;19909;-74
2022/05/23 10:16:56;;;;;;;;;;;14.00;99.90;;;;;;5073216;28;19908;-75
2022/05/23 10:19:28;;;;;;;;;;;14.10;99.90;;;;;;5073096;28;19916;-74
2022/05/23 10:22:13;;;;;;;;;;;14.10;99.90;;;;;;5072699;28;19912;-74
2022/05/23 10:24:45;;;;;;;;;;;14.10;99.90;;;;;;5072977;28;20364;-75
2022/05/23 10:27:17;;;;;;;;;;;14.00;99.90;;;;;;5070767;28;20313;-75
2022/05/23 10:29:44;;;;;;;;;;;14.00;99.90;;;;;;5070731;28;20003;-75
2022/05/23 10:32:13;;;;;;;;;;;14.00;99.90;;;;;;5070662;28;20397;-75
2022/05/23 10:34:41;;;;;;;;;;;14.00;99.90;;;;;;5070637;28;19916;-74
2022/05/23 10:37:14;;;;;;;;;;;14.00;99.90;;;;;;5070678;28;19916;-75
2022/05/23 10:42:44;;;;;;;;;;;14.10;99.90;;;;;;5071193;28;20338;-75
2022/05/23 10:45:14;;;;;;;;;;;14.10;99.90;;;;;;5070558;28;20557;-75
2022/05/23 10:47:48;;;;;;;;;;;14.10;99.90;;;;;;5070427;28;19919;-74
2022/05/23 10:50:23;;;;;;;;;;;14.20;99.90;;;;;;5070312;28;20363;-74
2022/05/23 10:52:50;;;;;;;;;;;14.30;99.90;;;;;;5102563;28;19962;-75
2022/05/23 10:55:21;;;;;;;;;;;14.30;99.90;;;;;;5072813;28;19956;-74
2022/05/23 10:57:51;;;;;;;;;;;14.30;99.90;;;;;;5073961;28;19909;-73
2022/05/23 11:00:24;;;;;;;;;;;14.30;99.90;;;;;;5074223;28;19962;-74
2022/05/23 11:02:51;;;;;;;;;;;14.30;99.90;;;;;;5074261;28;20008;-74
2022/05/23 11:05:35;;;;;;;;;;;14.30;99.90;;;;;;5073248;28;19912;-73
2022/05/23 11:08:14;;;;;;;;;;;14.30;99.90;;;;;;5074004;28;19912;-74
2022/05/23 11:10:55;;;;;;;;;;;14.30;99.90;;;;;;5073929;28;20356;-74
2022/05/23 11:13:24;;;;;;;;;;;14.30;99.90;;;;;;5073987;28;19916;-74
2022/05/23 11:16:05;;;;;;;;;;;14.20;99.90;;;;;;5073560;28;19908;-75
2022/05/23 11:18:35;;;;;;;;;;;14.20;99.90;;;;;;5073009;28;19966;-74
2022/05/23 11:21:05;;;;;;;;;;;14.30;99.90;;;;;;5073844;28;19908;-75
2022/05/23 11:23:31;;;;;;;;;;;14.20;99.90;;;;;;5073538;28;19915;-75
2022/05/23 11:26:27;;;;;;;;;;;14.20;99.90;;;;;;5073994;28;20324;-75
2022/05/23 11:34:31;;;;;;;;;;;14.30;99.90;;;;;;5073013;28;19916;-75
2022/05/23 11:39:52;;;;;;;;;;;14.30;99.90;;;;;;5073520;28;20485;-75
2022/05/23 11:42:27;;;;;;;;;;;14.30;99.90;;;;;;5073383;28;19909;-75
2022/05/23 11:44:59;;;;;;;;;;;14.20;99.90;;;;;;5072909;28;19916;-74
2022/05/23 11:47:44;;;;;;;;;;;14.20;99.90;;;;;;5073328;28;19913;-75
2022/05/23 11:50:13;;;;;;;;;;;14.10;99.90;;;;;;5072584;28;19921;-75
2022/05/23 11:52:42;;;;;;;;;;;14.10;99.90;;;;;;5074138;28;20432;-74
2022/05/23 11:55:13;;;;;;;;;;;14.00;99.90;;;;;;5075363;28;19916;-75
2022/05/23 11:57:41;;;;;;;;;;;14.00;99.90;;;;;;5075018;28;19942;-75
2022/05/23 12:00:26;;;;;;;;;;;14.00;99.90;;;;;;5075099;28;19909;-75
2022/05/23 12:03:09;;;;;;;;;;;14.00;99.90;;;;;;5074707;28;19999;-75
2022/05/23 12:05:36;;;;;;;;;;;14.00;99.90;;;;;;5074330;28;19909;-74
2022/05/23 12:08:05;;;;;;;;;;;14.00;99.90;;;;;;5074932;28;19909;-75
2022/05/23 12:10:36;;;;;;;;;;;14.00;99.90;;;;;;5073658;28;19943;-75
2022/05/23 12:13:11;;;;;;;;;;;13.90;99.90;;;;;;5080998;28;20433;-75
2022/05/23 12:15:47;;;;;;;;;;;13.90;99.90;;;;;;5072123;28;19916;-75
2022/05/23 12:18:22;;;;;;;;;;;13.90;99.90;;;;;;5071419;28;19970;-75
2022/05/23 12:20:52;;;;;;;;;;;13.90;99.90;;;;;;5071547;28;19915;-75
2022/05/23 12:23:37;;;;;;;;;;;13.90;99.90;;;;;;5071722;28;19912;-75
2022/05/23 12:26:10;;;;;;;;;;;13.90;99.90;;;;;;5071594;28;19916;-75
2022/05/23 12:28:42;;;;;;;;;;;13.90;99.90;;;;;;5072033;28;19913;-75
2022/05/23 12:31:11;;;;;;;;;;;13.90;99.90;;;;;;5071714;28;19913;-75
2022/05/23 12:33:41;;;;;;;;;;;13.90;99.90;;;;;;5070963;28;19998;-76
2022/05/23 12:36:09;;;;;;;;;;;13.90;99.90;;;;;;5071609;28;20346;-76
2022/05/23 12:38:36;;;;;;;;;;;13.90;99.90;;;;;;5071375;28;20737;-76
2022/05/23 12:41:15;;;;;;;;;;;13.90;99.90;;;;;;5071620;28;19997;-75
2022/05/23 12:43:54;;;;;;;;;;;13.80;99.90;;;;;;5071359;28;19916;-76
2022/05/23 12:46:27;;;;;;;;;;;13.80;99.90;;;;;;5071530;28;19919;-75
2022/05/23 12:48:56;;;;;;;;;;;13.80;99.90;;;;;;5071033;28;19979;-75
2022/05/23 12:51:42;;;;;;;;;;;13.70;99.90;;;;;;5070532;28;19982;-75
2022/05/23 12:54:26;;;;;;;;;;;13.70;99.90;;;;;;5071242;28;20429;-75
2022/05/23 12:57:12;;;;;;;;;;;13.70;99.90;;;;;;5071350;28;20379;-75
2022/05/23 12:59:45;;;;;;;;;;;13.70;99.90;;;;;;5071315;28;19915;-75
2022/05/23 13:02:14;;;;;;;;;;;13.60;99.90;;;;;;5070986;28;19917;-75
2022/05/23 13:04:41;;;;;;;;;;;13.60;99.90;;;;;;5070587;28;19909;-75
2022/05/23 13:07:23;;;;;;;;;;;13.60;99.90;;;;;;5071189;28;19908;-75
2022/05/23 13:09:55;;;;;;;;;;;13.50;99.90;;;;;;5071171;28;19919;-75
2022/05/23 13:12:26;;;;;;;;;;;13.60;99.90;;;;;;5071023;28;20527;-75
2022/05/23 13:14:54;;;;;;;;;;;13.50;99.90;;;;;;5073278;28;19916;-75
2022/05/23 13:17:34;;;;;;;;;;;13.50;99.90;;;;;;5088259;28;19998;-75
2022/05/23 13:22:46;;;;;;;;;;;13.50;99.90;;;;;;5070973;28;19947;-75
2022/05/23 13:25:12;;;;;;;;;;;13.50;99.90;;;;;;5070890;28;19916;-75
2022/05/23 13:27:47;;;;;;;;;;;13.40;99.90;;;;;;5070540;28;19955;-75
2022/05/23 13:30:17;;;;;;;;;;;13.40;99.90;;;;;;5085143;28;19934;-75
2022/05/23 13:32:44;;;;;;;;;;;13.40;99.90;;;;;;5093831;28;20347;-75
2022/05/23 13:35:24;;;;;;;;;;;13.40;99.90;;;;;;5093719;28;20347;-75
2022/05/23 13:37:51;;;;;;;;;;;13.40;99.90;;;;;;5093469;28;19938;-75
2022/05/23 13:40:30;;;;;;;;;;;13.30;99.90;;;;;;5093760;28;19961;-74
2022/05/23 13:43:10;;;;;;;;;;;13.30;99.90;;;;;;5093735;28;19931;-74
2022/05/23 13:45:39;;;;;;;;;;;13.30;99.90;;;;;;5093450;28;19919;-74
2022/05/23 13:48:09;;;;;;;;;;;13.30;99.90;;;;;;5093562;28;19953;-74
2022/05/23 13:50:42;;;;;;;;;;;13.20;99.90;;;;;;5093200;28;19930;-75
2022/05/23 13:53:15;;;;;;;;;;;13.30;99.90;;;;;;5093411;28;19916;-75
2022/05/23 13:55:44;;;;;;;;;;;13.30;99.90;;;;;;5092079;28;20260;-74
2022/05/23 13:58:14;;;;;;;;;;;13.40;99.90;;;;;;5093514;28;19908;-74
2022/05/23 14:00:43;;;;;;;;;;;13.40;99.90;;;;;;5093532;28;20343;-74
2022/05/23 14:03:11;;;;;;;;;;;13.40;99.90;;;;;;5093544;28;19919;-74
2022/05/23 14:05:43;;;;;;;;;;;13.30;99.90;;;;;;5093126;28;19934;-74
2022/05/23 14:08:09;;;;;;;;;;;13.40;99.90;;;;;;5093510;28;19947;-74
2022/05/23 14:10:40;;;;;;;;;;;13.40;99.90;;;;;;5093365;28;19999;-74
2022/05/23 14:13:07;;;;;;;;;;;13.40;99.90;;;;;;5093352;28;19916;-75
2022/05/23 14:15:34;;;;;;;;;;;13.40;99.90;;;;;;5093074;28;19969;-74
2022/05/23 14:18:01;;;;;;;;;;;13.40;99.90;;;;;;5093327;28;19915;-74
2022/05/23 14:20:33;;;;;;;;;;;13.50;99.90;;;;;;5093261;28;20286;-73
2022/05/23 14:23:00;;;;;;;;;;;13.50;99.90;;;;;;5093410;28;19908;-73
2022/05/23 14:25:30;;;;;;;;;;;13.50;99.90;;;;;;5093401;28;20001;-73
2022/05/23 14:28:04;;;;;;;;;;;13.60;99.90;;;;;;5093334;28;20001;-74
2022/05/23 14:30:35;;;;;;;;;;;13.60;99.90;;;;;;5096327;28;19908;-75
2022/05/23 14:33:02;;;;;;;;;;;13.50;99.90;;;;;;5097134;28;19963;-75
2022/05/23 14:35:35;;;;;;;;;;;13.50;99.90;;;;;;5097032;28;19908;-75
2022/05/23 14:38:02;;;;;;;;;;;13.40;99.90;;;;;;5097138;28;20327;-76
2022/05/23 14:40:39;;;;;;;;;;;13.40;99.90;;;;;;5097147;28;19961;-75
2022/05/23 14:43:11;;;;;;;;;;;13.30;99.90;;;;;;5097126;28;19914;-74
2022/05/23 14:45:49;;;;;;;;;;;13.30;99.90;;;;;;5096750;28;19912;-75
2022/05/23 14:48:28;;;;;;;;;;;13.30;99.90;;;;;;5096885;28;19970;-76
2022/05/23 14:50:57;;;;;;;;;;;13.30;99.90;;;;;;5096614;28;19921;-75
2022/05/23 14:56:15;;;;;;;;;;;13.40;99.90;;;;;;5097204;28;19916;-75
2022/05/23 15:01:26;;;;;;;;;;;13.40;99.90;;;;;;5097043;28;20055;-75
2022/05/23 15:03:54;;;;;;;;;;;13.50;99.90;;;;;;5095247;28;20255;-75
2022/05/23 15:06:22;;;;;;;;;;;13.70;99.90;;;;;;5096473;28;19962;-75
2022/05/23 15:08:48;;;;;;;;;;;13.70;99.90;;;;;;5096537;28;20359;-74
2022/05/23 15:11:27;;;;;;;;;;;13.70;99.90;;;;;;5096397;28;19908;-75
2022/05/23 15:13:54;;;;;;;;;;;13.70;99.90;;;;;;5096196;28;19912;-74
2022/05/23 15:16:25;;;;;;;;;;;13.60;99.90;;;;;;5096447;28;20317;-75
2022/05/23 15:18:52;;;;;;;;;;;13.50;99.90;;;;;;5096446;28;19915;-75
2022/05/23 15:21:19;;;;;;;;;;;13.40;99.90;;;;;;5096289;28;19912;-75
2022/05/23 15:23:46;;;;;;;;;;;13.30;99.90;;;;;;5096056;28;19912;-75
2022/05/23 15:26:17;;;;;;;;;;;13.20;99.90;;;;;;5096148;28;19908;-75
2022/05/23 15:28:44;;;;;;;;;;;13.10;99.90;;;;;;5096289;28;20011;-75
2022/05/23 15:31:12;;;;;;;;;;;13.10;99.90;;;;;;5096044;28;20371;-75
2022/05/23 15:33:39;;;;;;;;;;;13.10;99.90;;;;;;5095766;28;19916;-75